sensor_id;sensor_type;location;lat;lon;timestamp;temperature;humidity
61004;DHT22;46889;37.310;13.582;2023-05-10T00:02:16;16.60;99.90
61004;DHT22;46889;37.310;13.582;2023-05-10T00:04:43;16.50;99.90
61004;DHT22;46889;37.310;13.582;2023-05-10T00:07:10;16.50;99.90
61004;DHT22;46889;37.310;13.582;2023-05-10T00:09:36;16.50;99.90
61004;DHT22;46889;37.310;13.582;2023-05-10T00:12:02;16.50;99.90
61004;DHT22;46889;37.310;13.582;2023-05-10T00:14:28;16.50;99.90
61004;DHT22;46889;37.310;13.582;2023-05-10T00:16:54;16.40;99.90
61004;DHT22;46889;37.310;13.582;2023-05-10T00:19:20;16.40;99.90
61004;DHT22;46889;37.310;13.582;2023-05-10T00:21:46;16.30;99.90
61004;DHT22;46889;37.310;13.582;2023-05-10T00:24:12;16.30;99.90
61004;DHT22;46889;37.310;13.582;2023-05-10T00:26:38;16.30;99.90
61004;DHT22;46889;37.310;13.582;2023-05-10T00:29:04;16.30;99.90
61004;DHT22;46889;37.310;13.582;2023-05-10T00:31:30;16.30;99.90
61004;DHT22;46889;37.310;13.582;2023-05-10T00:33:57;16.30;99.90
61004;DHT22;46889;37.310;13.582;2023-05-10T00:36:23;16.40;99.90
61004;DHT22;46889;37.310;13.582;2023-05-10T00:38:49;16.30;99.90
61004;DHT22;46889;37.310;13.582;2023-05-10T00:41:15;16.40;99.90
61004;DHT22;46889;37.310;13.582;2023-05-10T00:43:41;16.40;99.90
61004;DHT22;46889;37.310;13.582;2023-05-10T00:46:07;16.40;99.90
61004;DHT22;46889;37.310;13.582;2023-05-10T00:48:34;16.40;99.90
61004;DHT22;46889;37.310;13.582;2023-05-10T00:51:01;16.40;99.90
61004;DHT22;46889;37.310;13.582;2023-05-10T00:53:27;16.40;99.90
61004;DHT22;46889;37.310;13.582;2023-05-10T00:55:55;16.30;99.90
61004;DHT22;46889;37.310;13.582;2023-05-10T00:58:21;16.10;99.90
61004;DHT22;46889;37.310;13.582;2023-05-10T01:00:49;16.00;99.90
61004;DHT22;46889;37.310;13.582;2023-05-10T01:03:16;16.10;99.90
61004;DHT22;46889;37.310;13.582;2023-05-10T01:05:42;16.10;99.90
61004;DHT22;46889;37.310;13.582;2023-05-10T01:08:08;16.20;99.90
61004;DHT22;46889;37.310;13.582;2023-05-10T01:10:35;16.10;99.90
61004;DHT22;46889;37.310;13.582;2023-05-10T01:13:01;16.10;99.90
61004;DHT22;46889;37.310;13.582;2023-05-10T01:15:29;16.20;99.90
61004;DHT22;46889;37.310;13.582;2023-05-10T01:17:56;16.20;99.90
61004;DHT22;46889;37.310;13.582;2023-05-10T01:20:23;16.10;99.90
61004;DHT22;46889;37.310;13.582;2023-05-10T01:23:17;16.20;99.90
61004;DHT22;46889;37.310;13.582;2023-05-10T01:29:06;16.20;99.90
61004;DHT22;46889;37.310;13.582;2023-05-10T01:37:59;16.10;99.90
61004;DHT22;46889;37.310;13.582;2023-05-10T01:46:40;16.20;99.90
61004;DHT22;46889;37.310;13.582;2023-05-10T01:49:13;16.10;99.90
61004;DHT22;46889;37.310;13.582;2023-05-10T01:52:00;16.10;99.90
61004;DHT22;46889;37.310;13.582;2023-05-10T01:54:33;16.20;99.90
61004;DHT22;46889;37.310;13.582;2023-05-10T01:57:03;16.10;99.90
61004;DHT22;46889;37.310;13.582;2023-05-10T01:59:36;16.20;99.90
61004;DHT22;46889;37.310;13.582;2023-05-10T02:02:08;16.10;99.90
61004;DHT22;46889;37.310;13.582;2023-05-10T02:04:39;16.00;99.90
61004;DHT22;46889;37.310;13.582;2023-05-10T02:07:06;16.00;99.90
61004;DHT22;46889;37.310;13.582;2023-05-10T02:09:34;16.00;99.90
61004;DHT22;46889;37.310;13.582;2023-05-10T02:12:03;16.00;99.90
61004;DHT22;46889;37.310;13.582;2023-05-10T02:14:34;16.00;99.90
61004;DHT22;46889;37.310;13.582;2023-05-10T02:17:02;16.00;99.90
61004;DHT22;46889;37.310;13.582;2023-05-10T02:19:30;16.10;99.90
61004;DHT22;46889;37.310;13.582;2023-05-10T02:21:59;16.10;99.90
61004;DHT22;46889;37.310;13.582;2023-05-10T02:24:27;16.10;99.90
61004;DHT22;46889;37.310;13.582;2023-05-10T02:26:54;16.20;99.90
61004;DHT22;46889;37.310;13.582;2023-05-10T02:29:25;16.20;99.90
61004;DHT22;46889;37.310;13.582;2023-05-10T02:31:52;16.20;99.90
61004;DHT22;46889;37.310;13.582;2023-05-10T02:34:23;16.30;99.90
61004;DHT22;46889;37.310;13.582;2023-05-10T02:36:51;16.30;99.90
61004;DHT22;46889;37.310;13.582;2023-05-10T02:39:19;16.30;99.90
61004;DHT22;46889;37.310;13.582;2023-05-10T02:41:48;16.40;99.90
61004;DHT22;46889;37.310;13.582;2023-05-10T02:44:19;16.40;99.90
61004;DHT22;46889;37.310;13.582;2023-05-10T02:46:45;16.40;99.90
61004;DHT22;46889;37.310;13.582;2023-05-10T02:49:12;16.30;99.90
61004;DHT22;46889;37.310;13.582;2023-05-10T02:51:44;16.20;99.90
61004;DHT22;46889;37.310;13.582;2023-05-10T02:54:21;16.20;99.90
61004;DHT22;46889;37.310;13.582;2023-05-10T02:57:00;16.20;99.90
61004;DHT22;46889;37.310;13.582;2023-05-10T02:59:30;16.20;99.90
61004;DHT22;46889;37.310;13.582;2023-05-10T03:01:56;16.10;99.90
61004;DHT22;46889;37.310;13.582;2023-05-10T03:04:22;16.10;99.90
61004;DHT22;46889;37.310;13.582;2023-05-10T03:06:48;16.10;99.90
61004;DHT22;46889;37.310;13.582;2023-05-10T03:09:14;16.20;99.90
61004;DHT22;46889;37.310;13.582;2023-05-10T03:12:15;16.10;99.90
61004;DHT22;46889;37.310;13.582;2023-05-10T03:15:03;16.10;99.90
61004;DHT22;46889;37.310;13.582;2023-05-10T03:18:01;16.10;99.90
61004;DHT22;46889;37.310;13.582;2023-05-10T03:20:36;16.10;99.90
61004;DHT22;46889;37.310;13.582;2023-05-10T03:23:11;16.20;99.90
61004;DHT22;46889;37.310;13.582;2023-05-10T03:25:38;16.20;99.90
61004;DHT22;46889;37.310;13.582;2023-05-10T03:28:06;16.10;99.90
61004;DHT22;46889;37.310;13.582;2023-05-10T03:30:33;16.10;99.90
61004;DHT22;46889;37.310;13.582;2023-05-10T03:33:07;16.10;99.90
61004;DHT22;46889;37.310;13.582;2023-05-10T03:35:33;16.10;99.90
61004;DHT22;46889;37.310;13.582;2023-05-10T03:38:00;16.10;99.90
61004;DHT22;46889;37.310;13.582;2023-05-10T03:40:27;16.10;99.90
61004;DHT22;46889;37.310;13.582;2023-05-10T03:42:55;16.10;99.90
61004;DHT22;46889;37.310;13.582;2023-05-10T03:45:21;16.20;99.90
61004;DHT22;46889;37.310;13.582;2023-05-10T03:47:47;16.20;99.90
61004;DHT22;46889;37.310;13.582;2023-05-10T03:50:13;16.20;99.90
61004;DHT22;46889;37.310;13.582;2023-05-10T03:52:39;16.30;99.90
61004;DHT22;46889;37.310;13.582;2023-05-10T03:55:06;16.20;99.90
61004;DHT22;46889;37.310;13.582;2023-05-10T03:57:42;16.10;99.90
61004;DHT22;46889;37.310;13.582;2023-05-10T04:00:09;16.20;99.90
61004;DHT22;46889;37.310;13.582;2023-05-10T04:02:35;16.20;99.90
61004;DHT22;46889;37.310;13.582;2023-05-10T04:05:01;16.30;99.90
61004;DHT22;46889;37.310;13.582;2023-05-10T04:07:28;16.30;99.90
61004;DHT22;46889;37.310;13.582;2023-05-10T04:09:54;16.30;99.90
61004;DHT22;46889;37.310;13.582;2023-05-10T04:12:20;16.20;99.90
61004;DHT22;46889;37.310;13.582;2023-05-10T04:14:47;16.20;99.90
61004;DHT22;46889;37.310;13.582;2023-05-10T04:17:13;16.10;99.90
61004;DHT22;46889;37.310;13.582;2023-05-10T04:19:55;16.10;99.90
61004;DHT22;46889;37.310;13.582;2023-05-10T04:22:22;16.10;99.90
61004;DHT22;46889;37.310;13.582;2023-05-10T04:24:48;16.10;99.90
61004;DHT22;46889;37.310;13.582;2023-05-10T04:27:15;16.10;99.90
61004;DHT22;46889;37.310;13.582;2023-05-10T04:29:41;16.10;99.90
61004;DHT22;46889;37.310;13.582;2023-05-10T04:32:07;16.10;99.90
61004;DHT22;46889;37.310;13.582;2023-05-10T04:34:33;16.10;99.90
61004;DHT22;46889;37.310;13.582;2023-05-10T04:37:01;16.00;99.90
61004;DHT22;46889;37.310;13.582;2023-05-10T04:39:27;16.10;99.90
61004;DHT22;46889;37.310;13.582;2023-05-10T04:41:53;16.10;99.90
61004;DHT22;46889;37.310;13.582;2023-05-10T04:44:20;16.10;99.90
61004;DHT22;46889;37.310;13.582;2023-05-10T04:46:46;16.10;99.90
61004;DHT22;46889;37.310;13.582;2023-05-10T04:49:12;16.10;99.90
61004;DHT22;46889;37.310;13.582;2023-05-10T04:51:38;16.10;99.90
61004;DHT22;46889;37.310;13.582;2023-05-10T04:54:04;16.30;99.90
61004;DHT22;46889;37.310;13.582;2023-05-10T04:56:30;16.30;99.90
61004;DHT22;46889;37.310;13.582;2023-05-10T04:58:57;16.40;99.90
61004;DHT22;46889;37.310;13.582;2023-05-10T05:01:23;16.40;99.90
61004;DHT22;46889;37.310;13.582;2023-05-10T05:03:49;16.50;99.90
61004;DHT22;46889;37.310;13.582;2023-05-10T05:06:15;16.60;99.90
61004;DHT22;46889;37.310;13.582;2023-05-10T05:08:41;16.60;99.90
61004;DHT22;46889;37.310;13.582;2023-05-10T05:11:07;16.70;99.90
61004;DHT22;46889;37.310;13.582;2023-05-10T05:13:33;16.80;99.90
61004;DHT22;46889;37.310;13.582;2023-05-10T05:16:01;16.90;99.90
61004;DHT22;46889;37.310;13.582;2023-05-10T05:18:28;17.00;99.90
61004;DHT22;46889;37.310;13.582;2023-05-10T05:20:54;17.20;99.90
61004;DHT22;46889;37.310;13.582;2023-05-10T05:23:21;17.30;99.90
61004;DHT22;46889;37.310;13.582;2023-05-10T05:25:52;17.30;99.90
61004;DHT22;46889;37.310;13.582;2023-05-10T05:28:19;17.20;99.90
61004;DHT22;46889;37.310;13.582;2023-05-10T05:30:44;17.30;99.90
61004;DHT22;46889;37.310;13.582;2023-05-10T05:33:11;17.30;99.90
61004;DHT22;46889;37.310;13.582;2023-05-10T05:35:37;17.30;99.90
61004;DHT22;46889;37.310;13.582;2023-05-10T05:38:03;17.40;99.90
61004;DHT22;46889;37.310;13.582;2023-05-10T05:40:29;17.40;99.90
61004;DHT22;46889;37.310;13.582;2023-05-10T05:42:55;17.30;99.90
61004;DHT22;46889;37.310;13.582;2023-05-10T05:45:21;17.30;99.90
61004;DHT22;46889;37.310;13.582;2023-05-10T05:47:47;16.90;99.90
61004;DHT22;46889;37.310;13.582;2023-05-10T05:50:14;16.90;99.90
61004;DHT22;46889;37.310;13.582;2023-05-10T05:52:40;17.00;99.90
61004;DHT22;46889;37.310;13.582;2023-05-10T05:55:06;17.00;99.90
61004;DHT22;46889;37.310;13.582;2023-05-10T05:57:32;17.10;99.90
61004;DHT22;46889;37.310;13.582;2023-05-10T05:59:58;17.10;99.90
61004;DHT22;46889;37.310;13.582;2023-05-10T06:02:25;17.00;99.90
61004;DHT22;46889;37.310;13.582;2023-05-10T06:04:51;17.20;99.90
61004;DHT22;46889;37.310;13.582;2023-05-10T06:07:17;17.20;99.90
61004;DHT22;46889;37.310;13.582;2023-05-10T06:09:43;17.40;99.90
61004;DHT22;46889;37.310;13.582;2023-05-10T06:12:09;17.50;99.90
61004;DHT22;46889;37.310;13.582;2023-05-10T06:14:35;17.70;99.90
61004;DHT22;46889;37.310;13.582;2023-05-10T06:17:01;18.20;99.90
61004;DHT22;46889;37.310;13.582;2023-05-10T06:19:29;18.90;99.90
61004;DHT22;46889;37.310;13.582;2023-05-10T06:21:55;19.40;99.90
61004;DHT22;46889;37.310;13.582;2023-05-10T06:24:21;19.70;99.90
61004;DHT22;46889;37.310;13.582;2023-05-10T06:26:48;20.10;99.90
61004;DHT22;46889;37.310;13.582;2023-05-10T06:29:15;20.10;99.90
61004;DHT22;46889;37.310;13.582;2023-05-10T06:31:41;20.40;99.90
61004;DHT22;46889;37.310;13.582;2023-05-10T06:34:07;21.10;99.90
61004;DHT22;46889;37.310;13.582;2023-05-10T06:36:34;22.00;99.90
61004;DHT22;46889;37.310;13.582;2023-05-10T06:39:00;22.80;99.90
61004;DHT22;46889;37.310;13.582;2023-05-10T06:41:26;23.20;99.90
61004;DHT22;46889;37.310;13.582;2023-05-10T06:43:52;23.20;99.90
61004;DHT22;46889;37.310;13.582;2023-05-10T06:46:18;22.80;99.90
61004;DHT22;46889;37.310;13.582;2023-05-10T06:48:44;21.70;99.90
61004;DHT22;46889;37.310;13.582;2023-05-10T06:51:13;20.90;99.90
61004;DHT22;46889;37.310;13.582;2023-05-10T06:53:39;20.90;99.90
61004;DHT22;46889;37.310;13.582;2023-05-10T06:56:06;21.20;99.90
61004;DHT22;46889;37.310;13.582;2023-05-10T06:58:32;20.50;99.90
61004;DHT22;46889;37.310;13.582;2023-05-10T07:01:03;20.30;99.90
61004;DHT22;46889;37.310;13.582;2023-05-10T07:03:29;20.30;99.90
61004;DHT22;46889;37.310;13.582;2023-05-10T07:06:00;20.60;99.90
61004;DHT22;46889;37.310;13.582;2023-05-10T07:08:30;20.90;99.90
61004;DHT22;46889;37.310;13.582;2023-05-10T07:11:05;21.30;99.90
61004;DHT22;46889;37.310;13.582;2023-05-10T07:13:33;21.00;99.90
61004;DHT22;46889;37.310;13.582;2023-05-10T07:16:00;21.20;99.90
61004;DHT22;46889;37.310;13.582;2023-05-10T07:18:25;21.50;99.90
61004;DHT22;46889;37.310;13.582;2023-05-10T07:20:52;21.40;99.90
61004;DHT22;46889;37.310;13.582;2023-05-10T07:23:18;21.60;99.90
61004;DHT22;46889;37.310;13.582;2023-05-10T07:25:48;21.50;99.90
61004;DHT22;46889;37.310;13.582;2023-05-10T07:28:15;21.80;99.90
61004;DHT22;46889;37.310;13.582;2023-05-10T07:30:42;22.20;99.90
61004;DHT22;46889;37.310;13.582;2023-05-10T07:33:09;22.00;99.90
61004;DHT22;46889;37.310;13.582;2023-05-10T07:35:35;21.90;99.90
61004;DHT22;46889;37.310;13.582;2023-05-10T07:38:02;21.60;99.90
61004;DHT22;46889;37.310;13.582;2023-05-10T07:40:28;21.90;99.90
61004;DHT22;46889;37.310;13.582;2023-05-10T07:42:54;22.00;99.90
61004;DHT22;46889;37.310;13.582;2023-05-10T07:45:21;22.00;99.90
61004;DHT22;46889;37.310;13.582;2023-05-10T07:47:47;22.10;99.90
61004;DHT22;46889;37.310;13.582;2023-05-10T07:50:13;21.90;99.90
61004;DHT22;46889;37.310;13.582;2023-05-10T07:52:39;22.00;99.90
61004;DHT22;46889;37.310;13.582;2023-05-10T07:55:06;21.90;99.90
61004;DHT22;46889;37.310;13.582;2023-05-10T07:57:34;21.70;99.90
61004;DHT22;46889;37.310;13.582;2023-05-10T08:00:00;21.80;99.90
61004;DHT22;46889;37.310;13.582;2023-05-10T08:02:34;22.20;99.90
61004;DHT22;46889;37.310;13.582;2023-05-10T08:05:01;22.20;99.90
61004;DHT22;46889;37.310;13.582;2023-05-10T08:07:27;22.40;99.90
61004;DHT22;46889;37.310;13.582;2023-05-10T08:09:53;22.50;99.90
61004;DHT22;46889;37.310;13.582;2023-05-10T08:12:19;22.30;99.90
61004;DHT22;46889;37.310;13.582;2023-05-10T08:14:45;22.30;99.90
61004;DHT22;46889;37.310;13.582;2023-05-10T08:17:11;22.40;99.90
61004;DHT22;46889;37.310;13.582;2023-05-10T08:19:37;22.40;99.90
61004;DHT22;46889;37.310;13.582;2023-05-10T08:22:03;22.40;99.90
61004;DHT22;46889;37.310;13.582;2023-05-10T08:24:30;22.70;99.90
61004;DHT22;46889;37.310;13.582;2023-05-10T08:26:56;22.50;99.90
61004;DHT22;46889;37.310;13.582;2023-05-10T08:29:22;22.50;99.90
61004;DHT22;46889;37.310;13.582;2023-05-10T08:31:48;22.60;99.90
61004;DHT22;46889;37.310;13.582;2023-05-10T08:34:14;22.90;99.90
61004;DHT22;46889;37.310;13.582;2023-05-10T08:36:40;22.90;99.90
61004;DHT22;46889;37.310;13.582;2023-05-10T08:39:06;22.80;99.90
61004;DHT22;46889;37.310;13.582;2023-05-10T08:41:33;23.10;99.90
61004;DHT22;46889;37.310;13.582;2023-05-10T08:44:04;23.60;99.90
61004;DHT22;46889;37.310;13.582;2023-05-10T08:46:33;24.00;99.90
61004;DHT22;46889;37.310;13.582;2023-05-10T08:49:04;24.20;99.90
61004;DHT22;46889;37.310;13.582;2023-05-10T08:51:36;24.10;99.90
61004;DHT22;46889;37.310;13.582;2023-05-10T08:54:03;23.60;99.90
61004;DHT22;46889;37.310;13.582;2023-05-10T08:56:30;23.60;99.90
61004;DHT22;46889;37.310;13.582;2023-05-10T08:58:56;23.50;99.90
61004;DHT22;46889;37.310;13.582;2023-05-10T09:01:23;23.80;99.90
61004;DHT22;46889;37.310;13.582;2023-05-10T09:03:50;23.90;99.90
61004;DHT22;46889;37.310;13.582;2023-05-10T09:06:17;23.90;99.90
61004;DHT22;46889;37.310;13.582;2023-05-10T09:08:43;23.90;99.90
61004;DHT22;46889;37.310;13.582;2023-05-10T09:11:11;23.60;99.90
61004;DHT22;46889;37.310;13.582;2023-05-10T09:13:37;23.60;99.90
61004;DHT22;46889;37.310;13.582;2023-05-10T09:16:04;23.60;99.90
61004;DHT22;46889;37.310;13.582;2023-05-10T09:18:30;23.60;99.90
61004;DHT22;46889;37.310;13.582;2023-05-10T09:20:57;23.80;99.90
61004;DHT22;46889;37.310;13.582;2023-05-10T09:23:23;23.40;99.90
61004;DHT22;46889;37.310;13.582;2023-05-10T09:26:07;23.00;99.90
61004;DHT22;46889;37.310;13.582;2023-05-10T09:31:18;22.90;99.90
61004;DHT22;46889;37.310;13.582;2023-05-10T09:33:48;22.50;99.90
61004;DHT22;46889;37.310;13.582;2023-05-10T09:36:15;22.50;99.90
61004;DHT22;46889;37.310;13.582;2023-05-10T09:38:49;22.30;99.90
61004;DHT22;46889;37.310;13.582;2023-05-10T09:41:22;21.90;99.90
61004;DHT22;46889;37.310;13.582;2023-05-10T09:43:49;21.60;99.90
61004;DHT22;46889;37.310;13.582;2023-05-10T09:46:15;21.90;99.90
61004;DHT22;46889;37.310;13.582;2023-05-10T09:48:45;21.90;99.90
61004;DHT22;46889;37.310;13.582;2023-05-10T09:51:22;22.00;99.90
61004;DHT22;46889;37.310;13.582;2023-05-10T09:53:50;21.60;99.90
61004;DHT22;46889;37.310;13.582;2023-05-10T09:56:35;21.50;99.90
61004;DHT22;46889;37.310;13.582;2023-05-10T09:59:06;21.50;99.90
61004;DHT22;46889;37.310;13.582;2023-05-10T10:01:33;21.70;99.90
61004;DHT22;46889;37.310;13.582;2023-05-10T10:04:02;21.80;99.90
61004;DHT22;46889;37.310;13.582;2023-05-10T10:06:30;21.90;99.90
61004;DHT22;46889;37.310;13.582;2023-05-10T10:09:00;21.90;99.90
61004;DHT22;46889;37.310;13.582;2023-05-10T10:11:26;21.70;99.90
61004;DHT22;46889;37.310;13.582;2023-05-10T10:13:53;21.80;99.90
61004;DHT22;46889;37.310;13.582;2023-05-10T10:16:19;21.80;99.90
61004;DHT22;46889;37.310;13.582;2023-05-10T10:18:46;21.80;99.90
61004;DHT22;46889;37.310;13.582;2023-05-10T10:21:13;21.70;99.90
61004;DHT22;46889;37.310;13.582;2023-05-10T10:23:39;21.60;99.90
61004;DHT22;46889;37.310;13.582;2023-05-10T10:26:05;21.60;99.90
61004;DHT22;46889;37.310;13.582;2023-05-10T10:28:46;21.80;99.90
61004;DHT22;46889;37.310;13.582;2023-05-10T10:31:41;21.90;99.90
61004;DHT22;46889;37.310;13.582;2023-05-10T10:34:27;22.00;99.90
61004;DHT22;46889;37.310;13.582;2023-05-10T10:36:55;21.60;99.90
61004;DHT22;46889;37.310;13.582;2023-05-10T10:39:23;21.50;99.90
61004;DHT22;46889;37.310;13.582;2023-05-10T10:41:54;21.80;99.90
61004;DHT22;46889;37.310;13.582;2023-05-10T10:47:03;21.70;99.90
61004;DHT22;46889;37.310;13.582;2023-05-10T10:49:32;21.90;99.90
61004;DHT22;46889;37.310;13.582;2023-05-10T10:52:35;22.00;99.90
61004;DHT22;46889;37.310;13.582;2023-05-10T10:55:09;21.80;99.90
61004;DHT22;46889;37.310;13.582;2023-05-10T10:57:52;21.50;99.90
61004;DHT22;46889;37.310;13.582;2023-05-10T11:00:24;21.60;99.90
61004;DHT22;46889;37.310;13.582;2023-05-10T11:02:51;21.50;99.90
61004;DHT22;46889;37.310;13.582;2023-05-10T11:05:43;21.40;99.90
61004;DHT22;46889;37.310;13.582;2023-05-10T11:08:12;21.60;99.90
61004;DHT22;46889;37.310;13.582;2023-05-10T11:10:39;21.50;99.90
61004;DHT22;46889;37.310;13.582;2023-05-10T11:13:09;21.70;99.90
61004;DHT22;46889;37.310;13.582;2023-05-10T11:15:39;21.70;99.90
61004;DHT22;46889;37.310;13.582;2023-05-10T11:18:28;21.60;99.90
61004;DHT22;46889;37.310;13.582;2023-05-10T11:21:01;21.40;99.90
61004;DHT22;46889;37.310;13.582;2023-05-10T11:23:51;21.60;99.90
61004;DHT22;46889;37.310;13.582;2023-05-10T11:26:18;21.90;99.90
61004;DHT22;46889;37.310;13.582;2023-05-10T11:28:45;22.00;99.90
61004;DHT22;46889;37.310;13.582;2023-05-10T11:31:16;22.10;99.90
61004;DHT22;46889;37.310;13.582;2023-05-10T11:33:53;21.90;99.90
61004;DHT22;46889;37.310;13.582;2023-05-10T11:36:24;21.50;99.90
61004;DHT22;46889;37.310;13.582;2023-05-10T11:38:52;21.80;99.90
61004;DHT22;46889;37.310;13.582;2023-05-10T11:41:19;21.90;99.90
61004;DHT22;46889;37.310;13.582;2023-05-10T11:43:49;21.80;99.90
61004;DHT22;46889;37.310;13.582;2023-05-10T11:46:17;22.00;99.90
61004;DHT22;46889;37.310;13.582;2023-05-10T11:48:45;22.00;99.90
61004;DHT22;46889;37.310;13.582;2023-05-10T11:51:11;22.10;99.90
61004;DHT22;46889;37.310;13.582;2023-05-10T11:53:37;22.10;99.90
61004;DHT22;46889;37.310;13.582;2023-05-10T11:56:10;22.00;99.90
61004;DHT22;46889;37.310;13.582;2023-05-10T11:58:37;22.00;99.90
61004;DHT22;46889;37.310;13.582;2023-05-10T12:01:06;22.00;99.90
61004;DHT22;46889;37.310;13.582;2023-05-10T12:03:32;22.10;99.90
61004;DHT22;46889;37.310;13.582;2023-05-10T12:05:59;22.20;99.90
61004;DHT22;46889;37.310;13.582;2023-05-10T12:08:28;22.30;99.90
61004;DHT22;46889;37.310;13.582;2023-05-10T12:11:07;22.40;99.90
61004;DHT22;46889;37.310;13.582;2023-05-10T12:13:44;22.40;99.90
61004;DHT22;46889;37.310;13.582;2023-05-10T12:16:17;22.40;99.90
61004;DHT22;46889;37.310;13.582;2023-05-10T12:18:53;22.60;99.90
61004;DHT22;46889;37.310;13.582;2023-05-10T12:21:20;22.40;99.90
61004;DHT22;46889;37.310;13.582;2023-05-10T12:23:51;22.20;99.90
61004;DHT22;46889;37.310;13.582;2023-05-10T12:26:22;22.10;99.90
61004;DHT22;46889;37.310;13.582;2023-05-10T12:28:50;21.90;99.90
61004;DHT22;46889;37.310;13.582;2023-05-10T12:31:16;21.80;99.90
61004;DHT22;46889;37.310;13.582;2023-05-10T12:33:43;21.80;99.90
61004;DHT22;46889;37.310;13.582;2023-05-10T12:36:14;21.90;99.90
61004;DHT22;46889;37.310;13.582;2023-05-10T12:38:44;22.00;99.90
61004;DHT22;46889;37.310;13.582;2023-05-10T12:41:17;22.20;99.90
61004;DHT22;46889;37.310;13.582;2023-05-10T12:43:44;21.80;99.90
61004;DHT22;46889;37.310;13.582;2023-05-10T12:46:17;22.00;99.90
61004;DHT22;46889;37.310;13.582;2023-05-10T12:48:44;21.90;99.90
61004;DHT22;46889;37.310;13.582;2023-05-10T12:51:12;21.80;99.90
61004;DHT22;46889;37.310;13.582;2023-05-10T12:53:41;22.00;99.90
61004;DHT22;46889;37.310;13.582;2023-05-10T12:56:07;22.40;99.90
61004;DHT22;46889;37.310;13.582;2023-05-10T12:58:34;22.50;99.90
61004;DHT22;46889;37.310;13.582;2023-05-10T13:01:01;22.80;99.90
61004;DHT22;46889;37.310;13.582;2023-05-10T13:03:27;22.80;99.90
61004;DHT22;46889;37.310;13.582;2023-05-10T13:05:53;23.10;99.90
61004;DHT22;46889;37.310;13.582;2023-05-10T13:08:20;22.80;99.90
61004;DHT22;46889;37.310;13.582;2023-05-10T13:10:46;22.50;99.90
61004;DHT22;46889;37.310;13.582;2023-05-10T13:13:12;22.80;99.90
61004;DHT22;46889;37.310;13.582;2023-05-10T13:15:38;22.80;99.90
61004;DHT22;46889;37.310;13.582;2023-05-10T13:18:04;23.10;99.90
61004;DHT22;46889;37.310;13.582;2023-05-10T13:20:30;23.20;99.90
61004;DHT22;46889;37.310;13.582;2023-05-10T13:22:56;23.20;99.90
61004;DHT22;46889;37.310;13.582;2023-05-10T13:25:22;23.20;99.90
61004;DHT22;46889;37.310;13.582;2023-05-10T13:27:49;23.20;99.90
61004;DHT22;46889;37.310;13.582;2023-05-10T13:30:15;23.00;99.90
61004;DHT22;46889;37.310;13.582;2023-05-10T13:32:41;23.10;99.90
61004;DHT22;46889;37.310;13.582;2023-05-10T13:35:09;23.10;99.90
61004;DHT22;46889;37.310;13.582;2023-05-10T13:37:35;23.20;99.90
61004;DHT22;46889;37.310;13.582;2023-05-10T13:40:03;23.20;99.90
61004;DHT22;46889;37.310;13.582;2023-05-10T13:42:30;23.00;99.90
61004;DHT22;46889;37.310;13.582;2023-05-10T13:44:57;22.20;99.90
61004;DHT22;46889;37.310;13.582;2023-05-10T13:47:23;22.40;99.90
61004;DHT22;46889;37.310;13.582;2023-05-10T13:49:49;22.50;99.90
61004;DHT22;46889;37.310;13.582;2023-05-10T13:52:15;22.20;99.90
61004;DHT22;46889;37.310;13.582;2023-05-10T13:54:41;22.50;99.90
61004;DHT22;46889;37.310;13.582;2023-05-10T13:57:07;22.40;99.90
61004;DHT22;46889;37.310;13.582;2023-05-10T13:59:33;22.30;99.90
61004;DHT22;46889;37.310;13.582;2023-05-10T14:02:00;22.40;99.90
61004;DHT22;46889;37.310;13.582;2023-05-10T14:04:28;22.50;99.90
61004;DHT22;46889;37.310;13.582;2023-05-10T14:06:54;22.30;99.90
61004;DHT22;46889;37.310;13.582;2023-05-10T14:09:20;22.40;99.90
61004;DHT22;46889;37.310;13.582;2023-05-10T14:11:47;22.50;99.90
61004;DHT22;46889;37.310;13.582;2023-05-10T14:14:13;22.60;99.90
61004;DHT22;46889;37.310;13.582;2023-05-10T14:16:43;22.70;99.90
61004;DHT22;46889;37.310;13.582;2023-05-10T14:19:10;22.80;99.90
61004;DHT22;46889;37.310;13.582;2023-05-10T14:21:37;22.70;99.90
61004;DHT22;46889;37.310;13.582;2023-05-10T14:24:03;22.20;99.90
61004;DHT22;46889;37.310;13.582;2023-05-10T14:26:29;21.90;99.90
61004;DHT22;46889;37.310;13.582;2023-05-10T14:28:55;21.70;99.90
61004;DHT22;46889;37.310;13.582;2023-05-10T14:31:21;21.60;99.90
61004;DHT22;46889;37.310;13.582;2023-05-10T14:33:48;21.70;99.90
61004;DHT22;46889;37.310;13.582;2023-05-10T14:36:15;22.10;99.90
61004;DHT22;46889;37.310;13.582;2023-05-10T14:38:41;22.40;99.90
61004;DHT22;46889;37.310;13.582;2023-05-10T14:41:07;22.10;99.90
61004;DHT22;46889;37.310;13.582;2023-05-10T14:43:33;22.10;99.90
61004;DHT22;46889;37.310;13.582;2023-05-10T14:45:59;22.20;99.90
61004;DHT22;46889;37.310;13.582;2023-05-10T14:48:26;22.40;99.90
61004;DHT22;46889;37.310;13.582;2023-05-10T14:50:52;22.40;99.90
61004;DHT22;46889;37.310;13.582;2023-05-10T14:53:18;22.00;99.90
61004;DHT22;46889;37.310;13.582;2023-05-10T14:55:44;22.10;99.90
61004;DHT22;46889;37.310;13.582;2023-05-10T14:58:10;22.00;99.90
61004;DHT22;46889;37.310;13.582;2023-05-10T15:00:36;22.00;99.90
61004;DHT22;46889;37.310;13.582;2023-05-10T15:03:03;22.10;99.90
61004;DHT22;46889;37.310;13.582;2023-05-10T15:05:29;22.10;99.90
61004;DHT22;46889;37.310;13.582;2023-05-10T15:07:55;22.30;99.90
61004;DHT22;46889;37.310;13.582;2023-05-10T15:10:21;22.60;99.90
61004;DHT22;46889;37.310;13.582;2023-05-10T15:12:47;22.70;99.90
61004;DHT22;46889;37.310;13.582;2023-05-10T15:15:13;22.80;99.90
61004;DHT22;46889;37.310;13.582;2023-05-10T15:17:40;22.90;99.90
61004;DHT22;46889;37.310;13.582;2023-05-10T15:20:06;22.60;99.90
61004;DHT22;46889;37.310;13.582;2023-05-10T15:22:33;22.50;99.90
61004;DHT22;46889;37.310;13.582;2023-05-10T15:24:59;22.50;99.90
61004;DHT22;46889;37.310;13.582;2023-05-10T15:27:25;22.40;99.90
61004;DHT22;46889;37.310;13.582;2023-05-10T15:29:52;22.40;99.90
61004;DHT22;46889;37.310;13.582;2023-05-10T15:32:18;22.30;99.90
61004;DHT22;46889;37.310;13.582;2023-05-10T15:34:44;22.10;99.90
61004;DHT22;46889;37.310;13.582;2023-05-10T15:37:10;22.00;99.90
61004;DHT22;46889;37.310;13.582;2023-05-10T15:39:36;21.80;99.90
61004;DHT22;46889;37.310;13.582;2023-05-10T15:42:02;21.50;99.90
61004;DHT22;46889;37.310;13.582;2023-05-10T15:44:29;21.60;99.90